Terminal Aerodrome Forecast
Issued by NWS

Home | Current Version | Previous Version | Text Only | Print | Product List | Glossary On
Versions: 1 2 3 4 5 6 7 8 9 10 11 12 13 14
000
FTUS45 KFGZ 290539
TAFSEZ
TAF
KSEZ 290539Z 2906/3006 VRB06KT P6SM FEW130 BKN200
     FM291600 15007KT P6SM SCT080
     FM292000 VRB06KT P6SM BKN080
     FM300300 05008KT P6SM FEW110 SCT200=

USA.gov is the U.S. government's official web portal to all federal, state and local government web resources and services.